YWON weather

Wonthaggi Airport
Victoria, Australia

Public forecast

Using degrees Celsius for public forecast. Weather courtesy of forecast.io.

METAR (pilot weather report)

Closest report is Melbourne Essendon Airport, 56.2 nm (104.0 km) NW. Retrieved 2019/04/23 03:00 UTC (52 minutes ago):

YMEN 230300Z AUTO 15004KT 9999 // OVC065 17/11 Q1027

TAF (pilot weather forecast)

Forecast is more than 12 hours old.

Closest forecast is Avalon Airport, 60.3 nm (111.6 km) WNW. Retrieved 2019/04/22 00:00 UTC (1 day ago):

TAF YMAV 222312Z 2300/2324 16010KT 9999 SCT025 BKN045 BECMG 2316/2318 VRB05KT 9999 -DZ BKN015 TEMPO 2315/2324 4000 SHRA BKN010